createdAt,value
2019-05-01T00:04:12.776Z,76.52
2019-05-01T00:09:18.414Z,76.46
2019-05-01T00:14:24.240Z,77.37
2019-05-01T00:19:29.490Z,77.26
2019-05-01T00:24:35.054Z,77.11
2019-05-01T00:29:40.443Z,76.84
2019-05-01T00:35:04.526Z,77.36
2019-05-01T00:40:18.956Z,77.90
2019-05-01T00:45:26.401Z,77.83
2019-05-01T00:50:34.203Z,78.23
2019-05-01T00:55:45.917Z,78.04
2019-05-01T01:01:09.989Z,78.91
2019-05-01T01:06:15.561Z,78.74
2019-05-01T01:11:20.861Z,78.74
2019-05-01T01:16:26.213Z,79.54
2019-05-01T01:21:31.449Z,79.00
2019-05-01T01:26:37.705Z,79.46
2019-05-01T01:31:44.149Z,79.67
2019-05-01T01:36:49.515Z,79.71
2019-05-01T01:41:54.877Z,80.16
2019-05-01T01:47:01.333Z,80.74
2019-05-01T01:52:07.613Z,79.97
2019-05-01T01:57:13.685Z,80.77
2019-05-01T02:02:32.064Z,81.10
2019-05-01T02:07:40.066Z,81.17
2019-05-01T02:12:45.668Z,81.01
2019-05-01T02:17:50.988Z,80.75
2019-05-01T02:22:56.350Z,80.53
2019-05-01T02:28:31.808Z,80.38
2019-05-01T02:33:37.654Z,81.15
2019-05-01T02:38:45.213Z,80.93
2019-05-01T02:43:53.209Z,80.93
2019-05-01T02:49:05.739Z,82.06
2019-05-01T02:54:14.448Z,80.60
2019-05-01T02:59:20.355Z,79.68
2019-05-01T03:04:26.090Z,81.44
2019-05-01T03:09:33.881Z,81.24
2019-05-01T03:14:42.575Z,81.06
2019-05-01T03:20:03.270Z,81.19
2019-05-01T03:25:09.128Z,77.80
2019-05-01T03:30:15.274Z,76.40
2019-05-01T03:35:20.908Z,77.01
2019-05-01T03:40:26.470Z,78.09
2019-05-01T03:45:34.302Z,77.48
2019-05-01T03:50:40.067Z,79.58
2019-05-01T03:55:48.704Z,77.57
2019-05-01T04:01:06.324Z,76.84
2019-05-01T04:06:13.607Z,77.58
2019-05-01T04:11:19.568Z,77.18
2019-05-01T04:16:26.381Z,77.00
2019-05-01T04:21:37.116Z,75.79
2019-05-01T04:26:42.453Z,76.49
2019-05-01T04:32:07.090Z,78.01
2019-05-01T04:37:14.597Z,78.00
2019-05-01T04:42:21.691Z,79.17
2019-05-01T04:47:29.656Z,80.22
2019-05-01T04:52:35.360Z,81.48
2019-05-01T04:57:41.489Z,83.26
2019-05-01T05:03:04.900Z,84.23
2019-05-01T05:08:09.885Z,87.19
2019-05-01T05:13:27.538Z,87.63
2019-05-01T05:18:35.564Z,88.55
2019-05-01T05:23:42.841Z,88.97
2019-05-01T05:28:51.241Z,90.24
2019-05-01T05:34:02.426Z,90.58
2019-05-01T05:39:18.729Z,91.52
2019-05-01T05:44:24.427Z,91.63
2019-05-01T05:49:31.645Z,90.30
2019-05-01T05:55:05.384Z,92.04
2019-05-01T06:00:26.584Z,93.73
2019-05-01T06:05:48.778Z,94.04
2019-05-01T06:11:33.947Z,94.13
2019-05-01T06:17:05.532Z,94.18
2019-05-01T06:22:40.480Z,93.48
2019-05-01T06:28:01.076Z,93.38
2019-05-01T06:33:44.123Z,94.13
2019-05-01T06:38:43.400Z,94.92
2019-05-01T06:44:02.105Z,94.86
2019-05-01T06:49:29.464Z,95.35
2019-05-01T06:54:36.135Z,94.94
2019-05-01T06:59:42.798Z,95.55
2019-05-01T07:04:50.489Z,95.10
2019-05-01T07:09:59.160Z,93.35
2019-05-01T07:15:11.968Z,91.96
2019-05-01T07:20:25.542Z,91.11
2019-05-01T07:25:34.837Z,89.86
2019-05-01T07:31:14.141Z,88.51
2019-05-01T07:36:20.340Z,87.52
2019-05-01T07:41:25.950Z,88.08
2019-05-01T07:46:43.861Z,89.41
2019-05-01T07:51:53.640Z,88.68
2019-05-01T07:57:03.170Z,89.42
2019-05-01T08:02:14.263Z,86.94
2019-05-01T08:07:21.787Z,87.97
2019-05-01T08:12:27.496Z,87.88
2019-05-01T08:17:35.810Z,86.88
2019-05-01T08:22:41.729Z,88.59
2019-05-01T08:27:57.958Z,88.07
2019-05-01T08:33:14.617Z,89.27
2019-05-01T08:38:19.259Z,89.55
2019-05-01T08:43:25.045Z,90.51
2019-05-01T08:48:38.751Z,92.02
2019-05-01T08:53:46.133Z,91.95
2019-05-01T08:58:51.549Z,91.14
2019-05-01T09:03:57.842Z,90.74
2019-05-01T09:09:08.333Z,88.97
2019-05-01T09:14:13.080Z,87.76
2019-05-01T09:19:18.561Z,86.85
2019-05-01T09:24:28.094Z,83.71
2019-05-01T09:29:46.878Z,81.69
2019-05-01T09:34:52.515Z,83.00
2019-05-01T09:39:57.876Z,84.75
2019-05-01T09:45:03.544Z,85.70
2019-05-01T09:50:09.121Z,84.42
2019-05-01T09:55:23.025Z,84.16
2019-05-01T10:00:30.653Z,83.97
2019-05-01T10:05:37.995Z,83.30
2019-05-01T10:10:48.913Z,82.04
2019-05-01T10:15:56.864Z,79.22
2019-05-01T10:21:02.191Z,79.19
2019-05-01T10:26:10.394Z,77.98
2019-05-01T10:31:20.556Z,79.53
2019-05-01T10:36:49.890Z,80.30
2019-05-01T10:41:55.455Z,82.04
2019-05-01T10:47:02.099Z,80.94
2019-05-01T10:52:14.902Z,77.25
2019-05-01T10:57:20.815Z,72.53
2019-05-01T11:02:27.384Z,69.04
2019-05-01T11:07:39.101Z,69.46
2019-05-01T11:12:44.767Z,67.09
2019-05-01T11:17:50.365Z,64.35
2019-05-01T11:22:55.922Z,64.91
2019-05-01T11:28:02.454Z,60.68
2019-05-01T11:33:26.869Z,60.20
2019-05-01T11:38:50.778Z,57.30
2019-05-01T11:43:57.865Z,55.62
2019-05-01T11:49:04.367Z,53.49
2019-05-01T11:54:09.699Z,54.19
2019-05-01T11:59:15.735Z,52.22
2019-05-01T12:04:23.730Z,51.28
2019-05-01T12:09:29.239Z,49.67
2019-05-01T12:14:35.641Z,47.96
2019-05-01T12:19:41.256Z,48.83
2019-05-01T12:24:46.697Z,46.87
2019-05-01T12:29:52.442Z,46.34
2019-05-01T12:34:57.997Z,46.87
2019-05-01T12:40:04.284Z,46.76
2019-05-01T12:45:11.441Z,46.16
2019-05-01T12:50:17.613Z,51.48
2019-05-01T12:55:46.533Z,52.20
2019-05-01T13:00:53.568Z,52.15
2019-05-01T13:05:59.399Z,50.74
2019-05-01T13:11:05.739Z,48.49
2019-05-01T13:16:14.035Z,48.68
2019-05-01T13:21:20.044Z,47.24
2019-05-01T13:26:45.321Z,46.87
2019-05-01T13:32:03.404Z,48.30
2019-05-01T13:37:09.647Z,49.16
2019-05-01T13:42:16.611Z,48.63
2019-05-01T13:47:22.219Z,47.82
2019-05-01T13:52:27.986Z,50.05
2019-05-01T13:57:33.265Z,49.93
2019-05-01T14:02:38.732Z,44.38
2019-05-01T14:07:47.201Z,45.64
2019-05-01T14:12:52.727Z,46.68
2019-05-01T14:17:59.998Z,46.09
2019-05-01T14:23:10.397Z,46.46
2019-05-01T14:28:17.110Z,46.71
2019-05-01T14:33:22.575Z,45.30
2019-05-01T14:38:28.840Z,44.79
2019-05-01T14:43:35.993Z,45.11
2019-05-01T14:48:43.435Z,46.31
2019-05-01T14:53:49.470Z,46.02
2019-05-01T14:58:55.451Z,46.39
2019-05-01T15:04:05.589Z,48.09
2019-05-01T15:09:11.030Z,49.09
2019-05-01T15:14:43.414Z,49.49
2019-05-01T15:19:54.315Z,49.83
2019-05-01T15:25:01.885Z,49.88
2019-05-01T15:30:09.079Z,50.37
2019-05-01T15:35:16.486Z,49.50
2019-05-01T15:40:28.854Z,49.73
2019-05-01T15:45:34.624Z,50.33
2019-05-01T15:50:43.231Z,50.68
2019-05-01T15:55:49.574Z,51.96
2019-05-01T16:00:55.066Z,51.74
2019-05-01T16:06:00.485Z,51.81
2019-05-01T16:11:14.636Z,50.12
2019-05-01T16:16:20.069Z,50.08
2019-05-01T16:21:26.674Z,50.28
2019-05-01T16:26:32.506Z,50.21
2019-05-01T16:31:38.277Z,50.69
2019-05-01T16:36:45.324Z,51.06
2019-05-01T16:41:50.974Z,51.44
2019-05-01T16:46:56.772Z,51.46
2019-05-01T16:52:02.132Z,51.63
2019-05-01T16:57:15.085Z,51.33
2019-05-01T17:02:43.708Z,51.87
2019-05-01T17:07:59.066Z,51.48
2019-05-01T17:13:26.021Z,52.24
2019-05-01T17:18:31.622Z,52.24
2019-05-01T17:23:38.935Z,52.39
2019-05-01T17:28:44.545Z,51.78
2019-05-01T17:33:55.385Z,52.19
2019-05-01T17:38:58.399Z,52.15
2019-05-01T17:44:07.461Z,51.86
2019-05-01T17:49:15.097Z,52.30
2019-05-01T17:54:21.886Z,51.34
2019-05-01T17:59:27.578Z,51.90
2019-05-01T18:04:41.669Z,51.97
2019-05-01T18:09:51.370Z,52.16
2019-05-01T18:14:56.258Z,52.46
2019-05-01T18:20:01.889Z,52.72
2019-05-01T18:25:19.129Z,53.30
2019-05-01T18:30:29.876Z,53.89
2019-05-01T18:35:35.198Z,54.69
2019-05-01T18:40:48.327Z,54.77
2019-05-01T18:45:55.632Z,54.98
2019-05-01T18:51:01.039Z,55.63
2019-05-01T18:56:07.088Z,55.92
2019-05-01T19:01:12.711Z,56.48
2019-05-01T19:06:18.059Z,56.67
2019-05-01T19:11:23.728Z,56.87
2019-05-01T19:16:29.311Z,57.28
2019-05-01T19:21:35.251Z,57.59
2019-05-01T19:26:42.644Z,58.21
2019-05-01T19:31:49.110Z,58.42
2019-05-01T19:36:54.434Z,58.52
2019-05-01T19:42:00.393Z,58.87
2019-05-01T19:47:07.948Z,59.04
2019-05-01T19:52:13.839Z,59.63
2019-05-01T19:57:19.388Z,59.92
2019-05-01T20:02:25.283Z,59.94
2019-05-01T20:07:31.023Z,60.26
2019-05-01T20:12:36.323Z,61.25
2019-05-01T20:17:41.880Z,61.85
2019-05-01T20:22:48.262Z,61.92
2019-05-01T20:27:54.713Z,62.34
2019-05-01T20:33:02.120Z,62.11
2019-05-01T20:38:09.070Z,62.49
2019-05-01T20:43:14.471Z,63.15
2019-05-01T20:48:23.760Z,63.47
2019-05-01T20:53:27.198Z,64.24
2019-05-01T20:58:34.206Z,64.18
2019-05-01T21:03:44.136Z,64.78
2019-05-01T21:08:55.023Z,64.46
2019-05-01T21:14:16.771Z,64.96
2019-05-01T21:19:08.843Z,64.74
2019-05-01T21:24:14.225Z,64.65
2019-05-01T21:29:21.560Z,65.03
2019-05-01T21:34:26.960Z,65.87
2019-05-01T21:39:33.471Z,66.63
2019-05-01T21:44:39.128Z,66.40
2019-05-01T21:49:45.113Z,67.04
2019-05-01T21:54:55.301Z,66.92
2019-05-01T21:59:57.993Z,67.26
2019-05-01T22:05:04.875Z,67.51
2019-05-01T22:10:11.559Z,68.01
2019-05-01T22:15:25.395Z,67.99
2019-05-01T22:20:38.652Z,68.64
2019-05-01T22:25:49.979Z,68.60
2019-05-01T22:31:21.790Z,68.83
2019-05-01T22:36:27.632Z,68.19
2019-05-01T22:41:32.898Z,69.75
2019-05-01T22:46:38.934Z,69.66
2019-05-01T22:51:46.601Z,69.42
2019-05-01T22:56:51.934Z,70.02
2019-05-01T23:02:03.067Z,70.40
2019-05-01T23:07:11.806Z,70.97
2019-05-01T23:12:18.974Z,71.94
2019-05-01T23:17:34.968Z,71.85
2019-05-01T23:22:40.795Z,71.31
2019-05-01T23:27:46.078Z,73.84
2019-05-01T23:32:53.234Z,73.65
2019-05-01T23:38:01.305Z,72.61
2019-05-01T23:43:06.606Z,72.09
2019-05-01T23:48:11.891Z,72.25
2019-05-01T23:53:17.331Z,72.90
2019-05-01T23:58:22.799Z,73.42
